Time;durP1;ratioP1;P1;durP2;ratioP2;P2;SDS_P1;SDS_P2;PMS_P1;PMS_P2;Temp;Humidity;BMP_temperature;BMP_pressure;BME280_temperature;BME280_humidity;BME280_pressure;Samples;Min_cycle;Max_cycle;Signal;HPM_P1;HPM_P2
2021/06/25 00:00:09;;;;;;;10.00;4.30;;;21.80;85.70;;;;;;5123283;28;20026;-74
2021/06/25 00:02:39;;;;;;;15.27;4.20;;;21.70;85.90;;;;;;5123344;28;20023;-73
2021/06/25 00:05:11;;;;;;;8.88;3.83;;;21.60;86.50;;;;;;5123664;28;20098;-74
2021/06/25 00:07:39;;;;;;;10.00;3.63;;;21.60;86.30;;;;;;5105627;28;20074;-74
2021/06/25 00:10:11;;;;;;;8.90;3.80;;;21.60;86.70;;;;;;5123649;28;20089;-74
2021/06/25 00:12:39;;;;;;;6.88;3.55;;;21.50;86.30;;;;;;5123213;28;20027;-74
2021/06/25 00:15:10;;;;;;;9.93;3.85;;;21.40;86.80;;;;;;5123238;28;20053;-74
2021/06/25 00:17:36;;;;;;;9.45;3.85;;;21.30;86.70;;;;;;5123570;28;20043;-73
2021/06/25 00:20:05;;;;;;;12.25;4.07;;;21.10;86.90;;;;;;5098575;28;20031;-74
2021/06/25 00:22:42;;;;;;;12.40;4.13;;;21.00;87.00;;;;;;5119115;28;20038;-74
2021/06/25 00:25:11;;;;;;;8.57;3.78;;;21.00;86.40;;;;;;5120239;28;20099;-74
2021/06/25 00:27:42;;;;;;;14.82;3.90;;;20.90;85.90;;;;;;5120183;28;20125;-74
2021/06/25 00:30:08;;;;;;;10.65;3.90;;;20.80;86.20;;;;;;5120145;28;20024;-74
2021/06/25 00:32:34;;;;;;;14.63;4.32;;;20.80;86.90;;;;;;5101785;28;20042;-74
2021/06/25 00:35:00;;;;;;;7.75;3.58;;;20.80;86.70;;;;;;5119689;28;20023;-74
2021/06/25 00:37:27;;;;;;;9.30;3.15;;;20.70;86.40;;;;;;5119243;28;20135;-74
2021/06/25 00:39:53;;;;;;;6.03;2.95;;;20.70;86.70;;;;;;5119973;28;20315;-74
2021/06/25 00:42:26;;;;;;;8.15;3.50;;;20.70;86.30;;;;;;5118970;28;20458;-74
2021/06/25 00:44:57;;;;;;;12.25;3.65;;;20.60;85.80;;;;;;5119464;28;20012;-74
2021/06/25 00:47:26;;;;;;;6.05;3.10;;;20.50;86.30;;;;;;5119855;28;20032;-74
2021/06/25 00:49:52;;;;;;;6.65;3.20;;;20.40;84.70;;;;;;5120325;28;20016;-74
2021/06/25 00:52:18;;;;;;;9.30;3.45;;;20.50;84.20;;;;;;5119003;28;20119;-73
2021/06/25 00:54:44;;;;;;;9.57;3.33;;;20.60;83.50;;;;;;5119420;28;20024;-74
2021/06/25 00:57:10;;;;;;;5.60;2.58;;;20.70;82.70;;;;;;5119264;28;20080;-73
2021/06/25 00:59:38;;;;;;;7.55;2.42;;;20.80;82.30;;;;;;5119587;28;20031;-74
2021/06/25 01:02:03;;;;;;;7.63;2.80;;;20.80;82.00;;;;;;5119510;28;20035;-74
2021/06/25 01:04:30;;;;;;;9.07;2.60;;;20.80;82.10;;;;;;5119540;28;20296;-74
2021/06/25 01:06:57;;;;;;;8.10;3.20;;;20.60;82.50;;;;;;5119104;28;20057;-74
2021/06/25 01:09:24;;;;;;;32.75;4.38;;;20.40;82.00;;;;;;5119374;28;20304;-74
2021/06/25 01:11:50;;;;;;;5.22;2.50;;;20.20;82.10;;;;;;5119335;28;20027;-74
2021/06/25 01:14:20;;;;;;;7.75;2.70;;;20.20;81.60;;;;;;5119413;28;20396;-74
2021/06/25 01:16:45;;;;;;;6.75;2.80;;;20.20;82.20;;;;;;5118934;28;20059;-74
2021/06/25 01:19:18;;;;;;;6.20;2.30;;;20.30;81.60;;;;;;5119192;28;20108;-74
2021/06/25 01:21:45;;;;;;;10.98;2.70;;;20.30;81.80;;;;;;5119065;28;20035;-74
2021/06/25 01:24:11;;;;;;;4.93;2.25;;;20.30;81.80;;;;;;5119125;28;20379;-74
2021/06/25 01:26:36;;;;;;;4.45;2.05;;;20.30;81.50;;;;;;5118708;28;20146;-74
2021/06/25 01:29:03;;;;;;;5.57;2.22;;;20.30;79.90;;;;;;5118657;28;20044;-73
2021/06/25 01:31:28;;;;;;;5.00;2.00;;;20.30;79.70;;;;;;5118627;28;20098;-72
2021/06/25 01:33:54;;;;;;;7.15;2.10;;;20.30;79.20;;;;;;5118965;28;20459;-74
2021/06/25 01:36:20;;;;;;;3.53;1.77;;;20.20;79.20;;;;;;5118518;28;20405;-74
2021/06/25 01:38:49;;;;;;;7.40;2.20;;;20.20;79.50;;;;;;5118810;28;20032;-74
2021/06/25 01:41:15;;;;;;;9.90;2.88;;;20.30;78.40;;;;;;5118693;28;20309;-74
2021/06/25 01:43:44;;;;;;;9.30;2.15;;;20.30;77.50;;;;;;5118791;28;20101;-74
2021/06/25 01:46:14;;;;;;;14.80;2.65;;;20.30;77.50;;;;;;5118345;28;20416;-74
2021/06/25 01:48:40;;;;;;;7.53;2.78;;;20.20;77.90;;;;;;5118669;28;20324;-74
2021/06/25 01:51:05;;;;;;;9.57;3.67;;;20.10;81.30;;;;;;5118558;28;20027;-73
2021/06/25 01:53:31;;;;;;;10.35;4.15;;;19.90;86.00;;;;;;5118469;28;20042;-74
2021/06/25 01:56:00;;;;;;;13.98;4.90;;;19.80;87.80;;;;;;5118497;28;20375;-74
2021/06/25 01:58:28;;;;;;;11.27;4.25;;;19.70;88.10;;;;;;5118136;28;20049;-74
2021/06/25 02:01:00;;;;;;;10.27;4.10;;;19.50;88.90;;;;;;5117993;28;20035;-74
2021/06/25 02:03:26;;;;;;;10.90;5.05;;;19.50;88.80;;;;;;5118360;28;20046;-74
2021/06/25 02:05:52;;;;;;;8.07;4.90;;;19.40;88.70;;;;;;5117982;28;20407;-74
2021/06/25 02:08:18;;;;;;;9.52;6.03;;;19.40;88.70;;;;;;5117904;28;20037;-73
2021/06/25 02:10:43;;;;;;;11.65;5.63;;;19.40;88.70;;;;;;5117935;28;20030;-74
2021/06/25 02:13:09;;;;;;;8.18;5.00;;;19.40;88.60;;;;;;5117916;28;20098;-74
2021/06/25 02:15:35;;;;;;;9.27;5.60;;;19.30;88.80;;;;;;5117731;28;20031;-74
2021/06/25 02:18:01;;;;;;;13.00;5.15;;;19.30;88.50;;;;;;5117753;28;20027;-73
2021/06/25 02:20:26;;;;;;;8.27;4.68;;;19.30;88.60;;;;;;5117664;28;20118;-74
2021/06/25 02:22:52;;;;;;;9.90;5.70;;;19.30;88.50;;;;;;5117655;28;20066;-74
2021/06/25 02:25:18;;;;;;;13.32;5.78;;;19.30;88.10;;;;;;5117556;28;20024;-74
2021/06/25 02:27:43;;;;;;;9.45;4.25;;;19.20;88.30;;;;;;5117867;28;20026;-74
2021/06/25 02:30:15;;;;;;;8.60;4.18;;;19.20;88.50;;;;;;5117508;28;20027;-74
2021/06/25 02:32:41;;;;;;;6.68;3.97;;;19.20;87.80;;;;;;5117526;28;20035;-74
2021/06/25 02:35:07;;;;;;;11.75;4.40;;;19.30;86.30;;;;;;5117745;28;20098;-74
2021/06/25 02:37:32;;;;;;;6.70;3.63;;;19.40;85.20;;;;;;5117202;28;20050;-73
2021/06/25 02:39:58;;;;;;;6.88;3.95;;;19.50;85.20;;;;;;5117734;28;20019;-74
2021/06/25 02:42:24;;;;;;;7.00;3.58;;;19.50;84.80;;;;;;5116895;28;20368;-74
2021/06/25 02:44:50;;;;;;;6.65;3.35;;;19.40;84.20;;;;;;5117849;28;20031;-74
2021/06/25 02:47:15;;;;;;;8.68;3.10;;;19.30;84.30;;;;;;5117296;28;20089;-74
2021/06/25 02:49:41;;;;;;;7.75;3.78;;;19.30;84.50;;;;;;5117589;28;20030;-74
2021/06/25 02:52:07;;;;;;;9.23;4.22;;;19.30;83.50;;;;;;5117282;28;20031;-74
2021/06/25 02:54:33;;;;;;;6.13;3.10;;;19.20;84.40;;;;;;5117279;28;20107;-73
2021/06/25 02:56:59;;;;;;;8.02;3.70;;;19.10;84.50;;;;;;5117180;28;20035;-74
2021/06/25 02:59:24;;;;;;;10.90;3.97;;;19.10;84.50;;;;;;5117465;28;20039;-74
2021/06/25 03:01:50;;;;;;;6.15;2.63;;;19.00;84.50;;;;;;5117101;28;20358;-74
2021/06/25 03:04:16;;;;;;;11.05;2.95;;;19.00;84.00;;;;;;5117165;28;20019;-74
2021/06/25 03:06:41;;;;;;;5.20;2.30;;;19.00;83.10;;;;;;5117331;28;20023;-74
2021/06/25 03:09:07;;;;;;;5.60;1.83;;;19.00;83.00;;;;;;5117055;28;20024;-73
2021/06/25 03:11:33;;;;;;;9.77;2.50;;;18.90;81.80;;;;;;5117318;28;20024;-74
2021/06/25 03:13:58;;;;;;;3.35;1.33;;;18.90;81.20;;;;;;5117501;28;20056;-74
2021/06/25 03:16:24;;;;;;;2.50;1.40;;;18.90;81.70;;;;;;5117270;28;20020;-73
2021/06/25 03:18:50;;;;;;;4.18;1.73;;;19.00;79.70;;;;;;5117288;28;20114;-74
2021/06/25 03:21:17;;;;;;;4.50;1.45;;;19.00;79.70;;;;;;5117203;28;20311;-73
2021/06/25 03:23:44;;;;;;;4.57;1.33;;;19.00;78.00;;;;;;5116917;28;20027;-74
2021/06/25 03:26:09;;;;;;;3.03;1.40;;;19.10;78.30;;;;;;5117215;28;20024;-73
2021/06/25 03:28:35;;;;;;;5.10;1.75;;;19.30;78.10;;;;;;5117230;28;20050;-74
2021/06/25 03:31:01;;;;;;;5.88;1.63;;;19.40;77.60;;;;;;5098907;28;20027;-73
2021/06/25 03:33:27;;;;;;;4.88;1.40;;;19.30;76.60;;;;;;5116849;28;20055;-74
2021/06/25 03:35:53;;;;;;;3.83;1.23;;;19.20;75.80;;;;;;5116645;28;20070;-74
2021/06/25 03:38:19;;;;;;;3.50;1.08;;;19.20;75.50;;;;;;5117158;28;20035;-73
2021/06/25 03:40:45;;;;;;;5.15;0.90;;;19.10;75.40;;;;;;5117016;28;20077;-73
2021/06/25 03:43:11;;;;;;;4.80;1.50;;;19.10;75.40;;;;;;5116875;28;20385;-73
2021/06/25 03:45:36;;;;;;;6.55;1.27;;;19.10;75.20;;;;;;5117040;28;20024;-74
2021/06/25 03:48:03;;;;;;;3.05;0.93;;;19.10;74.30;;;;;;5116716;28;20383;-73
2021/06/25 03:50:29;;;;;;;5.55;1.17;;;19.20;73.60;;;;;;5116697;28;20023;-73
2021/06/25 03:52:55;;;;;;;3.22;1.05;;;19.30;74.00;;;;;;5117749;28;20027;-73
2021/06/25 03:55:21;;;;;;;4.50;1.25;;;19.50;73.60;;;;;;5120895;28;20023;-74
2021/06/25 03:57:47;;;;;;;2.65;1.02;;;19.50;73.50;;;;;;5120837;28;20324;-74
2021/06/25 04:00:16;;;;;;;3.17;0.82;;;19.70;73.30;;;;;;5120699;28;20065;-74
2021/06/25 04:02:41;;;;;;;3.13;1.17;;;19.80;72.40;;;;;;5120425;28;20404;-74
2021/06/25 04:05:09;;;;;;;3.13;1.00;;;19.70;72.70;;;;;;5120674;28;20031;-74
2021/06/25 04:07:36;;;;;;;6.05;2.08;;;19.50;73.80;;;;;;5120329;28;20028;-73
2021/06/25 04:10:04;;;;;;;5.90;1.48;;;19.30;76.70;;;;;;5120592;28;20016;-73
2021/06/25 04:12:31;;;;;;;3.85;1.48;;;19.20;76.80;;;;;;5120441;28;20023;-74
2021/06/25 04:14:56;;;;;;;2.35;1.25;;;19.30;77.10;;;;;;5120505;28;20319;-74
2021/06/25 04:17:22;;;;;;;3.60;1.02;;;19.40;74.90;;;;;;5120439;28;20024;-73
2021/06/25 04:19:48;;;;;;;1.27;0.80;;;19.60;73.20;;;;;;5120156;28;20376;-74
2021/06/25 04:22:13;;;;;;;5.93;2.00;;;19.60;72.50;;;;;;5120293;28;20027;-73
2021/06/25 04:24:39;;;;;;;6.63;3.45;;;19.70;76.40;;;;;;5120062;28;20020;-73
2021/06/25 04:27:06;;;;;;;9.55;3.85;;;19.70;82.20;;;;;;5119935;28;20024;-73
2021/06/25 04:29:32;;;;;;;9.13;4.18;;;19.50;82.50;;;;;;5119860;28;20027;-73
2021/06/25 04:31:59;;;;;;;7.28;2.83;;;19.30;83.40;;;;;;5119892;28;20031;-73
2021/06/25 04:34:25;;;;;;;9.75;2.58;;;19.20;83.30;;;;;;5120155;28;20023;-73
2021/06/25 04:36:50;;;;;;;7.65;4.30;;;19.10;83.70;;;;;;5119532;28;20370;-73
2021/06/25 04:39:16;;;;;;;13.05;6.80;;;19.10;85.20;;;;;;5120010;28;20024;-73
2021/06/25 04:41:42;;;;;;;6.60;4.18;;;19.20;86.50;;;;;;5119938;28;20426;-73
2021/06/25 04:44:08;;;;;;;7.60;4.80;;;19.20;87.30;;;;;;5120152;28;20038;-73
2021/06/25 04:46:34;;;;;;;8.45;4.90;;;19.10;88.00;;;;;;5119885;28;20058;-72
2021/06/25 04:49:00;;;;;;;7.82;5.30;;;19.10;88.60;;;;;;5119836;28;20020;-73
2021/06/25 04:51:26;;;;;;;11.65;5.75;;;19.10;88.80;;;;;;5119490;28;20042;-73
2021/06/25 04:53:52;;;;;;;10.13;5.57;;;19.10;89.20;;;;;;5119487;28;20114;-73
2021/06/25 04:56:19;;;;;;;9.98;5.93;;;19.20;89.30;;;;;;5101421;28;20027;-74
2021/06/25 04:58:44;;;;;;;9.70;6.18;;;19.20;88.90;;;;;;5119671;28;20077;-73
2021/06/25 05:01:10;;;;;;;6.40;4.53;;;19.20;88.60;;;;;;5119571;28;20407;-73
2021/06/25 05:03:37;;;;;;;10.35;4.80;;;19.30;88.40;;;;;;5119262;28;20102;-73
2021/06/25 05:06:03;;;;;;;8.35;4.63;;;19.40;86.90;;;;;;5118822;28;20316;-73
2021/06/25 05:08:29;;;;;;;8.48;3.97;;;19.50;87.30;;;;;;5119164;28;20423;-73
2021/06/25 05:10:55;;;;;;;7.40;4.22;;;19.60;86.40;;;;;;5119462;28;20032;-73
2021/06/25 05:13:20;;;;;;;7.03;4.40;;;19.60;86.60;;;;;;5119218;28;20427;-73
2021/06/25 05:15:46;;;;;;;9.02;5.57;;;19.80;86.60;;;;;;5119318;28;20028;-73
2021/06/25 05:18:17;;;;;;;11.85;5.07;;;19.80;87.60;;;;;;5119286;28;20484;-73
2021/06/25 05:20:44;;;;;;;7.82;5.65;;;19.80;87.20;;;;;;5119195;28;20031;-74
2021/06/25 05:23:11;;;;;;;10.32;5.00;;;19.80;87.10;;;;;;5119211;28;20037;-73
2021/06/25 05:25:38;;;;;;;8.23;4.72;;;19.70;87.20;;;;;;5118837;28;20020;-73
2021/06/25 05:28:04;;;;;;;10.10;3.78;;;19.80;87.10;;;;;;5119082;28;20030;-73
2021/06/25 05:30:30;;;;;;;10.02;4.10;;;19.90;87.20;;;;;;5118744;28;20028;-73
2021/06/25 05:32:57;;;;;;;9.70;4.50;;;20.00;86.40;;;;;;5118646;28;20019;-73
2021/06/25 05:35:30;;;;;;;9.27;4.07;;;20.00;87.10;;;;;;5118951;28;20085;-74
2021/06/25 05:37:55;;;;;;;11.20;6.25;;;20.00;86.20;;;;;;5118534;28;20051;-73
2021/06/25 05:40:21;;;;;;;7.57;5.80;;;20.30;87.70;;;;;;5118741;28;20097;-73
2021/06/25 05:42:47;;;;;;;9.32;5.15;;;20.30;87.50;;;;;;5118753;28;20061;-73
2021/06/25 05:45:13;;;;;;;9.65;4.90;;;20.30;86.50;;;;;;5118700;28;20056;-73
2021/06/25 05:47:38;;;;;;;9.30;4.90;;;20.20;86.30;;;;;;5118716;28;20023;-73
2021/06/25 05:50:04;;;;;;;9.68;5.80;;;20.20;87.30;;;;;;5118682;28;20415;-73
2021/06/25 05:52:30;;;;;;;11.82;5.70;;;20.30;87.30;;;;;;5118564;28;20028;-73
2021/06/25 05:54:56;;;;;;;7.20;5.10;;;20.40;86.60;;;;;;5118541;28;20369;-73
2021/06/25 05:57:21;;;;;;;8.65;5.03;;;20.40;86.10;;;;;;5118522;28;20027;-73
2021/06/25 05:59:47;;;;;;;12.27;5.30;;;20.40;86.10;;;;;;5118121;28;20435;-73
2021/06/25 06:02:13;;;;;;;11.77;5.78;;;20.50;85.60;;;;;;5118341;28;20110;-73
2021/06/25 06:04:38;;;;;;;8.27;5.72;;;20.80;85.70;;;;;;5118208;28;20020;-74
2021/06/25 06:07:06;;;;;;;12.45;5.75;;;21.00;85.00;;;;;;5118282;28;20032;-74
2021/06/25 06:09:32;;;;;;;13.13;6.50;;;21.40;84.10;;;;;;5117917;28;20411;-72
2021/06/25 06:11:58;;;;;;;12.07;7.30;;;21.50;84.90;;;;;;5118227;28;20030;-73
2021/06/25 06:14:23;;;;;;;13.40;6.10;;;21.60;85.20;;;;;;5118313;28;20304;-72
2021/06/25 06:16:49;;;;;;;8.65;5.65;;;21.70;84.00;;;;;;5117110;28;20032;-72
2021/06/25 06:19:16;;;;;;;8.95;6.20;;;21.90;83.50;;;;;;5118086;28;20023;-72
2021/06/25 06:32:52;;;;;;;6.55;4.00;;;25.40;70.10;;;;;;5117820;28;20066;-74
2021/06/25 06:35:18;;;;;;;8.82;4.03;;;26.00;68.30;;;;;;5117865;28;20034;-73
2021/06/25 06:37:49;;;;;;;9.88;3.22;;;26.70;67.70;;;;;;5117430;28;20347;-74
2021/06/25 06:40:19;;;;;;;7.82;3.75;;;27.30;67.10;;;;;;5117386;28;20526;-73
2021/06/25 06:42:45;;;;;;;12.75;4.57;;;27.60;65.90;;;;;;5117650;28;20024;-73
2021/06/25 06:45:11;;;;;;;7.00;3.95;;;27.90;65.40;;;;;;5117685;28;20043;-73
2021/06/25 06:47:37;;;;;;;7.85;4.25;;;28.20;64.80;;;;;;5117680;28;20018;-73
2021/06/25 06:50:03;;;;;;;6.60;3.90;;;28.20;64.70;;;;;;5117661;28;20022;-73
2021/06/25 06:52:28;;;;;;;7.10;4.28;;;28.30;64.30;;;;;;5117242;28;20023;-73
2021/06/25 06:54:54;;;;;;;6.93;3.58;;;28.60;64.70;;;;;;5117499;28;20069;-73
2021/06/25 06:57:20;;;;;;;8.27;4.50;;;28.90;64.10;;;;;;5117216;28;20028;-73
2021/06/25 06:59:45;;;;;;;9.98;3.97;;;29.00;63.30;;;;;;5117234;28;20119;-73
2021/06/25 07:02:11;;;;;;;7.50;3.92;;;29.00;62.70;;;;;;5117080;28;20034;-73
2021/06/25 07:04:37;;;;;;;5.35;3.63;;;29.10;61.30;;;;;;5117223;28;20030;-73
2021/06/25 07:07:02;;;;;;;7.15;3.13;;;29.10;61.90;;;;;;5117086;28;20016;-73
2021/06/25 07:09:28;;;;;;;8.80;3.45;;;29.00;61.70;;;;;;5117348;28;20072;-73
2021/06/25 07:11:54;;;;;;;4.88;2.80;;;29.00;60.70;;;;;;5117084;28;20084;-73
2021/06/25 07:14:19;;;;;;;7.55;3.20;;;29.00;61.60;;;;;;5117495;28;20031;-73
2021/06/25 07:16:45;;;;;;;7.68;3.30;;;29.20;60.60;;;;;;5099017;28;20038;-73
2021/06/25 07:19:11;;;;;;;8.40;3.10;;;29.40;59.10;;;;;;5117324;28;20149;-73
2021/06/25 07:21:36;;;;;;;5.78;2.33;;;29.30;58.00;;;;;;5117220;28;20339;-73
2021/06/25 07:24:02;;;;;;;4.45;1.98;;;29.40;56.10;;;;;;5117252;28;20031;-73
2021/06/25 07:26:28;;;;;;;5.03;2.65;;;29.50;57.70;;;;;;5117215;28;20169;-73
2021/06/25 07:28:54;;;;;;;5.90;2.22;;;29.80;56.10;;;;;;5119755;28;20092;-73
2021/06/25 07:31:21;;;;;;;5.35;2.30;;;30.10;57.60;;;;;;5121372;28;20426;-73
2021/06/25 07:33:47;;;;;;;4.35;2.10;;;30.10;56.60;;;;;;5121289;28;20027;-73
2021/06/25 07:36:14;;;;;;;8.32;2.53;;;30.20;57.60;;;;;;5120756;28;20040;-73
2021/06/25 07:38:39;;;;;;;5.55;2.38;;;30.30;56.20;;;;;;5121260;28;20099;-73
2021/06/25 07:41:05;;;;;;;9.73;2.15;;;30.40;55.00;;;;;;5121120;28;20495;-74
2021/06/25 07:43:31;;;;;;;5.05;2.00;;;30.50;54.70;;;;;;5120719;28;20041;-74
2021/06/25 07:45:56;;;;;;;7.38;2.22;;;30.50;54.70;;;;;;5120785;28;20058;-73
2021/06/25 07:48:22;;;;;;;9.35;2.33;;;30.70;56.70;;;;;;5120739;28;20020;-74
2021/06/25 07:50:48;;;;;;;9.27;2.53;;;30.50;56.40;;;;;;5120933;28;20027;-73
2021/06/25 07:53:13;;;;;;;3.60;2.00;;;30.70;55.20;;;;;;5120944;28;20027;-73
2021/06/25 07:55:42;;;;;;;5.20;2.10;;;31.20;56.70;;;;;;5120898;28;20076;-73
2021/06/25 07:58:11;;;;;;;4.03;1.90;;;31.00;55.30;;;;;;5120556;28;20027;-73
2021/06/25 08:00:37;;;;;;;6.70;2.10;;;31.10;56.70;;;;;;5120451;28;20027;-73
2021/06/25 08:03:03;;;;;;;6.45;1.92;;;31.00;55.40;;;;;;5120469;28;20024;-73
2021/06/25 08:05:29;;;;;;;4.70;2.25;;;30.80;53.60;;;;;;5120425;28;20020;-73
2021/06/25 08:07:54;;;;;;;2.95;1.50;;;30.80;54.10;;;;;;5120667;28;20034;-73
2021/06/25 08:10:20;;;;;;;6.68;1.90;;;31.20;52.20;;;;;;5120365;28;20102;-73
2021/06/25 08:12:46;;;;;;;5.50;1.88;;;30.80;52.90;;;;;;5120227;28;20430;-73
2021/06/25 08:15:13;;;;;;;3.60;1.60;;;31.00;52.80;;;;;;5120195;28;20039;-73
2021/06/25 08:17:39;;;;;;;5.93;2.03;;;30.90;53.30;;;;;;5120478;28;20095;-73
2021/06/25 08:20:06;;;;;;;7.10;2.30;;;30.50;54.90;;;;;;5120163;28;20399;-73
2021/06/25 08:22:32;;;;;;;8.48;2.03;;;30.50;54.80;;;;;;5120381;28;20059;-73
2021/06/25 08:24:58;;;;;;;6.35;2.53;;;30.70;56.20;;;;;;5120028;28;20016;-73
2021/06/25 08:27:23;;;;;;;8.77;2.55;;;31.10;55.90;;;;;;5119990;28;20031;-73
2021/06/25 08:29:49;;;;;;;5.35;2.40;;;31.70;54.70;;;;;;5119999;28;20084;-73
2021/06/25 08:32:15;;;;;;;8.15;2.20;;;31.70;54.20;;;;;;5119973;28;20023;-73
2021/06/25 08:34:40;;;;;;;5.93;3.00;;;32.00;53.30;;;;;;5120219;28;20456;-73
2021/06/25 08:37:06;;;;;;;8.75;2.97;;;31.80;53.80;;;;;;5119619;28;20153;-73
2021/06/25 08:39:32;;;;;;;5.97;2.42;;;31.60;54.90;;;;;;5118899;28;20054;-73
2021/06/25 08:42:02;;;;;;;7.57;2.35;;;31.60;57.20;;;;;;5119630;28;20412;-73
2021/06/25 08:44:32;;;;;;;5.25;3.08;;;31.70;55.00;;;;;;5120131;28;20035;-73
2021/06/25 08:46:58;;;;;;;5.47;3.00;;;31.90;53.80;;;;;;5119937;28;20035;-73
2021/06/25 08:49:27;;;;;;;9.18;3.30;;;31.60;54.10;;;;;;5119881;28;20024;-73
2021/06/25 08:51:53;;;;;;;8.43;2.63;;;31.20;55.20;;;;;;5119523;28;20419;-73
2021/06/25 08:54:19;;;;;;;10.48;2.85;;;31.00;56.70;;;;;;5119847;28;20023;-73
2021/06/25 08:56:44;;;;;;;7.88;2.63;;;31.00;55.20;;;;;;5119710;28;20340;-73
2021/06/25 08:59:10;;;;;;;6.88;2.95;;;30.90;55.80;;;;;;5119728;28;20381;-73
2021/06/25 09:01:36;;;;;;;6.57;2.65;;;31.40;54.80;;;;;;5119560;28;20027;-73
2021/06/25 09:04:04;;;;;;;6.25;3.15;;;31.60;57.00;;;;;;5119321;28;20416;-73
2021/06/25 09:06:32;;;;;;;8.88;2.90;;;31.70;56.50;;;;;;5119162;28;20404;-73
2021/06/25 09:09:35;;;;;;;8.55;2.67;;;31.90;54.00;;;;;;5119533;28;20036;-74
2021/06/25 09:12:11;;;;;;;8.05;2.72;;;31.90;53.50;;;;;;5118995;28;20122;-73
2021/06/25 09:15:03;;;;;;;4.60;2.47;;;32.20;56.10;;;;;;5119054;28;20085;-73
2021/06/25 09:17:29;;;;;;;6.40;2.00;;;32.20;53.00;;;;;;5119334;28;20036;-73
2021/06/25 09:19:55;;;;;;;7.28;2.53;;;31.80;55.10;;;;;;5119319;28;20289;-73
2021/06/25 09:22:21;;;;;;;6.70;2.30;;;31.00;56.10;;;;;;5118816;28;20438;-73
2021/06/25 09:25:06;;;;;;;9.13;2.97;;;30.50;56.30;;;;;;5119243;28;20314;-73
2021/06/25 09:27:33;;;;;;;9.37;3.10;;;30.50;56.80;;;;;;5119169;28;20288;-73
2021/06/25 09:30:06;;;;;;;9.75;2.67;;;31.00;57.00;;;;;;5119110;28;20028;-73
2021/06/25 09:32:37;;;;;;;7.30;3.20;;;31.10;56.30;;;;;;5119061;28;20024;-73
2021/06/25 09:35:18;;;;;;;5.22;2.50;;;31.50;57.70;;;;;;5118922;28;20301;-74
2021/06/25 09:37:46;;;;;;;6.53;3.13;;;31.80;54.60;;;;;;5118544;28;20391;-73
2021/06/25 09:40:13;;;;;;;7.45;2.60;;;31.90;55.70;;;;;;5118853;28;20031;-73
2021/06/25 09:42:42;;;;;;;4.55;2.80;;;32.00;54.10;;;;;;5118624;28;20043;-73
2021/06/25 09:45:10;;;;;;;7.45;2.95;;;31.80;55.10;;;;;;5118739;28;20038;-73
2021/06/25 09:47:36;;;;;;;7.60;2.80;;;31.50;56.00;;;;;;5118777;28;20312;-73
2021/06/25 09:50:16;;;;;;;10.68;2.80;;;31.60;53.70;;;;;;5118712;28;20054;-73
2021/06/25 09:53:05;;;;;;;11.50;3.45;;;32.10;54.30;;;;;;5118146;28;20026;-74
2021/06/25 09:55:52;;;;;;;5.30;2.65;;;32.00;53.10;;;;;;5118232;28;20420;-73
2021/06/25 09:58:38;;;;;;;8.23;3.03;;;31.90;55.20;;;;;;5118585;28;20028;-73
2021/06/25 10:03:57;;;;;;;8.30;3.70;;;32.20;55.10;;;;;;5118220;28;20034;-73
2021/06/25 10:06:28;;;;;;;5.07;3.15;;;32.40;51.20;;;;;;5118070;28;20028;-74
2021/06/25 10:08:55;;;;;;;10.85;3.80;;;32.10;52.60;;;;;;5118044;28;20026;-73
2021/06/25 10:11:22;;;;;;;8.98;2.72;;;32.20;50.20;;;;;;5118290;28;20039;-74
2021/06/25 10:13:52;;;;;;;7.90;3.47;;;32.20;52.20;;;;;;5118130;28;20119;-73
2021/06/25 10:16:18;;;;;;;6.78;3.15;;;32.20;53.80;;;;;;5099277;28;20130;-73
2021/06/25 10:18:47;;;;;;;10.82;3.80;;;31.90;52.80;;;;;;5122207;27;20053;-73
2021/06/25 10:21:18;;;;;;;5.25;3.58;;;31.60;53.80;;;;;;5122974;27;20318;-73
2021/06/25 10:23:53;;;;;;;7.47;3.95;;;31.30;54.50;;;;;;5118085;28;20023;-73
2021/06/25 10:26:19;;;;;;;;;;;31.30;53.70;;;;;;5118413;28;20103;-73
2021/06/25 10:28:47;;;;;;;6.60;3.00;;;31.70;54.50;;;;;;5117715;28;20387;-73
2021/06/25 10:31:15;;;;;;;5.40;2.78;;;31.70;53.10;;;;;;5117642;28;20020;-73
2021/06/25 10:33:41;;;;;;;7.47;3.08;;;32.00;53.50;;;;;;5117558;28;20114;-74
2021/06/25 10:36:11;;;;;;;12.18;3.00;;;32.30;53.20;;;;;;5117600;28;20176;-73
2021/06/25 10:38:39;;;;;;;5.68;2.55;;;32.50;53.20;;;;;;5117867;28;20024;-73
2021/06/25 10:41:07;;;;;;;8.40;3.00;;;31.70;52.40;;;;;;5117744;28;20315;-75
2021/06/25 10:43:52;;;;;;;5.93;2.70;;;31.20;52.40;;;;;;5117781;28;20024;-73
2021/06/25 10:46:35;;;;;;;5.53;2.72;;;31.00;52.40;;;;;;5117724;28;20034;-73
2021/06/25 10:49:13;;;;;;;8.13;3.03;;;31.10;52.80;;;;;;5124582;27;20035;-74
2021/06/25 10:51:47;;;;;;;7.35;2.33;;;31.10;53.40;;;;;;5118516;27;20024;-73
2021/06/25 10:54:19;;;;;;;7.93;2.28;;;31.60;51.20;;;;;;5117356;28;20035;-73
2021/06/25 10:56:50;;;;;;;9.00;2.22;;;31.80;51.60;;;;;;5117510;28;20042;-73
2021/06/25 10:59:28;;;;;;;5.47;2.67;;;31.50;51.40;;;;;;5117209;28;20430;-73
2021/06/25 11:02:02;;;;;;;7.30;1.73;;;31.50;52.20;;;;;;5117368;28;20300;-73
2021/06/25 11:04:48;;;;;;;6.13;2.15;;;31.70;54.10;;;;;;5116859;28;20369;-73
2021/06/25 11:07:15;;;;;;;11.70;1.77;;;31.50;50.60;;;;;;5117476;28;20024;-73
2021/06/25 11:09:53;;;;;;;6.07;1.35;;;31.10;50.30;;;;;;5117374;28;20036;-73
2021/06/25 11:12:24;;;;;;;5.78;1.45;;;31.00;51.90;;;;;;5117134;28;20023;-73
2021/06/25 11:14:52;;;;;;;6.30;1.13;;;31.10;51.30;;;;;;5117609;28;20212;-73
2021/06/25 11:17:45;;;;;;;6.47;1.15;;;31.00;51.40;;;;;;5117397;28;20031;-73
2021/06/25 11:20:33;;;;;;;3.80;0.93;;;30.20;52.50;;;;;;5117360;28;20055;-74
2021/06/25 11:23:15;;;;;;;8.90;1.40;;;29.90;54.90;;;;;;5117284;28;20328;-73
2021/06/25 11:25:44;;;;;;;5.10;1.73;;;30.00;53.60;;;;;;5117247;28;20030;-73
2021/06/25 11:28:27;;;;;;;3.03;1.00;;;30.20;51.30;;;;;;5116933;28;20102;-73
2021/06/25 11:31:21;;;;;;;7.25;1.48;;;29.80;53.00;;;;;;5117256;28;20350;-73
2021/06/25 11:33:54;;;;;;;5.30;1.40;;;29.20;52.30;;;;;;5113733;28;20444;-73
2021/06/25 11:36:40;;;;;;;4.78;1.20;;;29.40;58.80;;;;;;5116656;28;20118;-74
2021/06/25 11:39:27;;;;;;;9.88;1.20;;;29.60;56.30;;;;;;5116977;28;20077;-73
2021/06/25 11:42:01;;;;;;;7.13;1.33;;;29.40;52.50;;;;;;5116727;28;20412;-73
2021/06/25 11:44:28;;;;;;;10.05;1.75;;;29.00;52.10;;;;;;5117351;28;20361;-73
2021/06/25 11:47:02;;;;;;;6.97;1.17;;;28.50;55.40;;;;;;5117025;28;20030;-73
2021/06/25 11:49:43;;;;;;;5.35;1.40;;;28.40;57.60;;;;;;5117094;28;20020;-73
2021/06/25 11:52:13;;;;;;;4.18;1.20;;;28.50;54.10;;;;;;5116770;28;20028;-73
2021/06/25 11:54:42;;;;;;;3.97;1.30;;;28.40;56.80;;;;;;5117031;28;20439;-73
2021/06/25 11:57:23;;;;;;;5.88;1.33;;;28.30;56.10;;;;;;5116951;28;20034;-73
2021/06/25 11:59:55;;;;;;;7.78;1.23;;;28.10;53.60;;;;;;5116975;28;20034;-73
2021/06/25 12:02:20;;;;;;;5.30;1.00;;;28.30;55.30;;;;;;5116835;28;20027;-73
2021/06/25 12:04:46;;;;;;;2.90;1.30;;;28.60;56.60;;;;;;5116958;28;20053;-73
2021/06/25 12:07:14;;;;;;;5.18;1.20;;;28.40;56.00;;;;;;5116862;28;20333;-73
2021/06/25 12:09:53;;;;;;;6.13;1.10;;;28.10;57.60;;;;;;5116916;28;20409;-73
2021/06/25 12:12:30;;;;;;;3.08;1.15;;;27.90;59.50;;;;;;5117137;28;20027;-73
2021/06/25 12:14:59;;;;;;;3.45;1.38;;;27.80;55.90;;;;;;5118833;28;20427;-73
2021/06/25 12:17:40;;;;;;;8.52;1.30;;;27.50;56.90;;;;;;5120259;28;20027;-73
2021/06/25 12:20:09;;;;;;;4.32;1.25;;;27.50;57.50;;;;;;5120529;28;20032;-73
2021/06/25 12:22:51;;;;;;;3.33;1.50;;;27.50;62.00;;;;;;5120335;28;20031;-73
2021/06/25 12:25:39;;;;;;;3.67;1.23;;;27.50;55.60;;;;;;5120048;28;20028;-73
2021/06/25 12:28:12;;;;;;;8.40;1.35;;;27.60;55.90;;;;;;5120363;28;20019;-74
2021/06/25 12:30:44;;;;;;;3.92;1.30;;;27.80;60.60;;;;;;5120274;28;20034;-73
2021/06/25 12:33:10;;;;;;;8.77;2.88;;;27.90;56.20;;;;;;5119968;28;20062;-73
2021/06/25 12:35:39;;;;;;;5.55;1.40;;;27.90;57.40;;;;;;5119885;28;20020;-73
2021/06/25 12:38:10;;;;;;;8.45;1.67;;;27.90;59.20;;;;;;5120122;28;20036;-73
2021/06/25 12:40:45;;;;;;;8.95;1.70;;;27.80;57.00;;;;;;5120036;28;20027;-73
2021/06/25 12:43:15;;;;;;;5.45;1.13;;;28.10;59.30;;;;;;5119828;28;20396;-74
2021/06/25 12:46:12;;;;;;;5.60;2.08;;;28.50;61.10;;;;;;5119629;28;20043;-73
2021/06/25 12:48:50;;;;;;;2.70;1.25;;;28.80;58.00;;;;;;5113352;28;20073;-73
2021/06/25 12:51:18;;;;;;;3.30;1.08;;;28.80;56.90;;;;;;5119932;28;20319;-73
2021/06/25 12:53:46;;;;;;;4.35;1.70;;;28.80;60.90;;;;;;5119838;28;20432;-73
2021/06/25 12:56:22;;;;;;;8.77;1.58;;;28.90;60.00;;;;;;5119492;28;20416;-73
2021/06/25 12:59:09;;;;;;;8.00;1.60;;;29.00;60.10;;;;;;5119752;28;20076;-73
2021/06/25 13:01:43;;;;;;;5.50;1.33;;;29.00;58.30;;;;;;5118656;28;20051;-73
2021/06/25 13:04:32;;;;;;;3.63;1.45;;;28.90;61.50;;;;;;5119394;28;20024;-73
2021/06/25 13:07:04;;;;;;;3.47;1.35;;;28.90;62.70;;;;;;5119588;28;20058;-75